Time;durP1;ratioP1;P1;durP2;ratioP2;P2;SDS_P1;SDS_P2;PMS_P1;PMS_P2;Temp;Humidity;BMP_temperature;BMP_pressure;BME280_temperature;BME280_humidity;BME280_pressure;Samples;Min_cycle;Max_cycle;Signal;HPM_P1;HPM_P2
2022/07/15 00:00:11;;;;;;;662.15;615.88;;;19.20;55.70;;;;;;5074106;28;20026;-84
2022/07/15 00:02:37;;;;;;;612.28;570.30;;;19.20;54.50;;;;;;5075923;28;20028;-88
2022/07/15 00:05:05;;;;;;;631.78;588.63;;;19.10;55.00;;;;;;5095396;28;20689;-87
2022/07/15 00:07:31;;;;;;;618.75;575.72;;;19.20;54.30;;;;;;5079435;28;20088;-87
2022/07/15 00:10:15;;;;;;;610.97;570.42;;;19.10;55.30;;;;;;5098929;28;20043;-88
2022/07/15 00:12:46;;;;;;;693.40;641.28;;;19.00;57.30;;;;;;5082086;28;20024;-88
2022/07/15 00:15:12;;;;;;;630.35;587.05;;;19.20;54.90;;;;;;5102439;28;20051;-87
2022/07/15 00:17:39;;;;;;;620.50;577.83;;;19.10;56.00;;;;;;5086720;28;20093;-87
2022/07/15 00:20:05;;;;;;;580.63;541.88;;;19.00;56.70;;;;;;5081094;28;20043;-87
2022/07/15 00:22:31;;;;;;;580.42;542.67;;;18.80;57.90;;;;;;5094654;28;20106;-88
2022/07/15 00:24:57;;;;;;;623.45;582.50;;;18.70;57.00;;;;;;5073028;28;20120;-88
2022/07/15 00:27:23;;;;;;;630.30;588.65;;;18.60;58.40;;;;;;5092254;28;20495;-88
2022/07/15 00:29:50;;;;;;;594.17;553.17;;;18.60;58.80;;;;;;5082627;28;20046;-87
2022/07/15 00:32:15;;;;;;;662.22;615.83;;;18.60;57.80;;;;;;5071825;28;20063;-87
2022/07/15 00:34:41;;;;;;;657.40;612.28;;;18.70;56.70;;;;;;5065068;28;20067;-87
2022/07/15 00:37:07;;;;;;;656.88;611.95;;;18.60;57.60;;;;;;5084180;28;20107;-87
2022/07/15 00:39:33;;;;;;;694.70;648.55;;;18.60;58.60;;;;;;5107378;28;20492;-87
2022/07/15 00:41:58;;;;;;;658.88;614.97;;;18.50;59.20;;;;;;5103236;28;20060;-88
2022/07/15 00:44:25;;;;;;;650.45;605.88;;;18.40;57.00;;;;;;5078871;28;20518;-89
2022/07/15 00:46:52;;;;;;;620.08;578.70;;;18.40;57.70;;;;;;5084675;28;20506;-88
2022/07/15 00:49:18;;;;;;;684.20;635.13;;;18.30;57.70;;;;;;5076892;28;20062;-88
2022/07/15 00:51:47;;;;;;;669.92;623.30;;;18.30;58.20;;;;;;5059482;28;20032;-87
2022/07/15 00:54:15;;;;;;;749.17;696.75;;;18.40;57.10;;;;;;5076010;28;20058;-87
2022/07/15 00:56:50;;;;;;;784.60;723.40;;;18.50;56.80;;;;;;5074822;28;20114;-88
2022/07/15 00:59:16;;;;;;;1063.65;957.25;;;18.50;55.80;;;;;;5076423;28;20032;-87
2022/07/15 01:01:44;;;;;;;762.53;706.92;;;18.40;55.50;;;;;;5074501;28;20111;-87
2022/07/15 01:04:12;;;;;;;770.70;715.85;;;18.40;56.30;;;;;;5096411;28;20553;-86
2022/07/15 01:06:39;;;;;;;930.20;843.22;;;18.30;57.20;;;;;;5083955;28;20039;-87
2022/07/15 01:09:05;;;;;;;766.15;709.90;;;18.30;54.50;;;;;;5109626;28;20028;-87
2022/07/15 01:11:31;;;;;;;780.08;722.38;;;18.30;55.40;;;;;;5104486;28;20055;-87
2022/07/15 01:13:58;;;;;;;836.03;771.78;;;18.30;55.60;;;;;;5103722;28;20059;-88
2022/07/15 01:16:24;;;;;;;757.60;700.05;;;18.20;55.90;;;;;;5103450;28;20185;-89
2022/07/15 01:18:50;;;;;;;797.90;739.38;;;18.20;56.30;;;;;;5104311;28;20034;-88
2022/07/15 01:21:16;;;;;;;755.85;701.58;;;18.20;57.30;;;;;;5081371;28;20433;-88
2022/07/15 01:23:42;;;;;;;818.38;758.55;;;18.10;56.70;;;;;;5087607;28;20542;-88
2022/07/15 01:26:10;;;;;;;758.88;702.92;;;18.10;56.00;;;;;;5100948;28;20026;-88
2022/07/15 01:28:36;;;;;;;787.50;728.83;;;18.10;57.20;;;;;;5055653;28;20448;-87
2022/07/15 01:31:02;;;;;;;784.05;725.33;;;18.00;56.80;;;;;;5073695;28;20520;-89
2022/07/15 01:33:27;;;;;;;779.17;717.58;;;18.10;55.80;;;;;;5091712;28;20024;-88
2022/07/15 01:35:56;;;;;;;896.95;827.75;;;17.90;56.90;;;;;;5081204;28;20032;-88
2022/07/15 01:38:22;;;;;;;884.17;811.88;;;17.90;55.80;;;;;;5083383;28;20056;-93
2022/07/15 01:40:47;;;;;;;838.10;774.22;;;17.90;55.50;;;;;;5104152;28;20778;-88
2022/07/15 01:43:13;;;;;;;810.85;749.58;;;17.90;55.30;;;;;;5103544;28;20019;-88
2022/07/15 01:45:43;;;;;;;828.40;763.40;;;17.80;57.40;;;;;;5102273;28;20115;-87
2022/07/15 01:49:21;;;;;;;902.67;823.10;;;17.70;55.90;;;;;;5100688;28;20039;-88
2022/07/15 01:50:57;;;;;;;860.67;794.28;;;17.60;56.70;;;;;;5077902;28;20412;-88
2022/07/15 01:53:24;;;;;;;938.90;852.63;;;17.50;57.30;;;;;;5102683;28;20515;-88
2022/07/15 01:55:50;;;;;;;844.60;780.38;;;17.40;57.20;;;;;;5088775;28;20104;-88
2022/07/15 01:58:15;;;;;;;853.45;785.92;;;17.30;58.50;;;;;;5079470;28;20123;-88
2022/07/15 02:00:41;;;;;;;881.00;808.28;;;17.10;58.90;;;;;;5073533;28;20436;-88
2022/07/15 02:03:07;;;;;;;876.78;805.10;;;17.20;58.60;;;;;;5076727;28;20503;-88
2022/07/15 02:05:33;;;;;;;868.25;797.33;;;17.20;59.70;;;;;;5070172;28;20036;-88
2022/07/15 02:07:59;;;;;;;843.58;778.85;;;17.10;59.10;;;;;;5104294;28;20084;-91
2022/07/15 02:10:25;;;;;;;894.03;821.20;;;16.90;60.90;;;;;;5103407;28;20096;-87
2022/07/15 02:12:50;;;;;;;867.20;798.25;;;16.80;61.40;;;;;;5100539;28;20031;-87
2022/07/15 02:15:16;;;;;;;865.20;797.38;;;16.80;60.50;;;;;;5071705;28;20439;-87
2022/07/15 02:17:42;;;;;;;894.00;820.05;;;16.80;60.60;;;;;;5083238;28;20024;-87
2022/07/15 02:20:08;;;;;;;820.33;758.78;;;16.70;60.30;;;;;;5077476;28;20028;-87
2022/07/15 02:22:33;;;;;;;928.10;800.92;;;16.70;61.40;;;;;;5096265;28;20086;-87
2022/07/15 02:24:59;;;;;;;925.22;845.38;;;16.60;59.10;;;;;;5075482;28;20671;-87
2022/07/15 02:27:25;;;;;;;936.00;855.65;;;16.60;60.70;;;;;;5072991;28;20492;-87
2022/07/15 02:29:50;;;;;;;892.25;817.53;;;16.50;59.50;;;;;;5077008;28;20043;-87
2022/07/15 02:32:16;;;;;;;951.72;867.08;;;16.40;60.80;;;;;;5091084;28;20047;-88
2022/07/15 02:34:41;;;;;;;1079.90;956.85;;;16.30;60.60;;;;;;5054387;28;20031;-87
2022/07/15 02:37:07;;;;;;;986.42;897.10;;;16.40;58.90;;;;;;5107837;28;20407;-86
2022/07/15 02:39:33;;;;;;;993.42;900.03;;;16.20;60.20;;;;;;5095240;28;20067;-87
2022/07/15 02:41:58;;;;;;;989.28;896.47;;;16.20;59.70;;;;;;5098715;28;20067;-87
2022/07/15 02:44:24;;;;;;;993.60;900.67;;;16.10;60.50;;;;;;5075922;28;20019;-86
2022/07/15 02:46:49;;;;;;;1024.72;930.42;;;16.10;60.00;;;;;;5098190;28;20046;-87
2022/07/15 02:49:15;;;;;;;1002.78;909.58;;;16.00;61.30;;;;;;5057473;28;20043;-87
2022/07/15 02:51:41;;;;;;;969.92;883.38;;;16.00;61.40;;;;;;5081442;28;20031;-87
2022/07/15 02:54:06;;;;;;;1011.15;917.10;;;15.80;62.60;;;;;;5096895;28;20036;-86
2022/07/15 02:56:32;;;;;;;1027.38;925.63;;;15.70;62.10;;;;;;5078863;28;20051;-86
2022/07/15 02:58:57;;;;;;;1060.38;955.85;;;15.80;60.60;;;;;;5062363;28;20418;-87
2022/07/15 03:01:23;;;;;;;1025.35;927.67;;;15.70;61.60;;;;;;5096966;28;20024;-86
2022/07/15 03:03:49;;;;;;;1044.78;944.15;;;15.70;61.10;;;;;;5054682;28;20047;-87
2022/07/15 03:06:14;;;;;;;1026.30;924.58;;;15.60;62.00;;;;;;5101085;28;20475;-86
2022/07/15 03:08:40;;;;;;;1035.07;933.38;;;15.60;61.30;;;;;;5079733;28;20470;-86
2022/07/15 03:11:06;;;;;;;1045.25;941.33;;;15.60;61.30;;;;;;5062769;28;20454;-86
2022/07/15 03:13:31;;;;;;;1029.10;929.80;;;15.50;62.00;;;;;;5082352;28;20140;-87
2022/07/15 03:15:57;;;;;;;1111.35;984.38;;;15.40;63.40;;;;;;5092265;28;20054;-86
2022/07/15 03:18:22;;;;;;;1075.18;959.17;;;15.50;61.70;;;;;;5081302;28;20028;-87
2022/07/15 03:20:48;;;;;;;1069.47;957.92;;;15.50;61.50;;;;;;5077600;28;20036;-86
2022/07/15 03:23:14;;;;;;;1035.28;938.90;;;15.50;61.80;;;;;;5079367;28;20031;-86
2022/07/15 03:25:40;;;;;;;1070.38;959.78;;;15.20;63.00;;;;;;5095260;28;20024;-86
2022/07/15 03:28:05;;;;;;;1012.10;916.58;;;15.30;63.10;;;;;;5095858;28;20023;-86
2022/07/15 03:30:31;;;;;;;1367.57;998.53;;;15.20;63.00;;;;;;5092054;28;20036;-86
2022/07/15 03:32:57;;;;;;;1092.95;971.85;;;15.30;61.70;;;;;;5091477;28;20028;-87
2022/07/15 03:35:23;;;;;;;1090.15;965.85;;;15.30;62.50;;;;;;5078481;28;20062;-86
2022/07/15 03:37:48;;;;;;;1089.75;973.30;;;15.30;62.30;;;;;;5085647;28;20494;-86
2022/07/15 03:40:14;;;;;;;1092.38;973.30;;;15.20;62.80;;;;;;5083252;28;20038;-86
2022/07/15 03:42:40;;;;;;;1098.78;969.42;;;15.10;62.90;;;;;;5078359;28;20407;-86
2022/07/15 03:45:06;;;;;;;1052.50;946.60;;;15.20;62.10;;;;;;5097141;28;20027;-87
2022/07/15 03:47:32;;;;;;;1118.47;957.38;;;15.20;62.40;;;;;;5095417;28;20016;-87
2022/07/15 03:49:57;;;;;;;1291.70;999.90;;;15.20;63.00;;;;;;5098048;28;20032;-87
2022/07/15 03:52:23;;;;;;;1087.15;962.83;;;15.20;62.60;;;;;;5093308;28;20032;-86
2022/07/15 03:54:48;;;;;;;1062.25;930.63;;;15.20;62.60;;;;;;5074851;28;20036;-87
2022/07/15 03:57:14;;;;;;;1175.25;975.15;;;15.20;63.20;;;;;;5091751;28;20105;-87
2022/07/15 03:59:40;;;;;;;1081.68;970.70;;;15.20;63.60;;;;;;5073076;28;20105;-86
2022/07/15 04:02:05;;;;;;;1083.18;970.00;;;15.10;64.00;;;;;;5091847;28;20028;-86
2022/07/15 04:04:31;;;;;;;1077.82;959.30;;;15.10;66.10;;;;;;5071639;28;20043;-86
2022/07/15 04:06:57;;;;;;;1116.10;993.35;;;15.20;63.40;;;;;;5085399;28;20479;-86
2022/07/15 04:09:22;;;;;;;1100.57;976.45;;;15.20;63.30;;;;;;5083792;28;20028;-89
2022/07/15 04:11:48;;;;;;;1088.32;972.15;;;15.40;64.80;;;;;;5102152;28;20534;-85
2022/07/15 04:14:14;;;;;;;1059.43;946.47;;;15.40;64.10;;;;;;5097398;28;20503;-87
2022/07/15 04:16:43;;;;;;;1020.05;921.35;;;15.50;64.50;;;;;;5089352;28;20045;-86
2022/07/15 04:19:10;;;;;;;1072.10;962.60;;;15.50;64.10;;;;;;5099470;28;20063;-86
2022/07/15 04:21:35;;;;;;;1059.88;950.45;;;15.40;65.00;;;;;;5073854;28;20039;-86
2022/07/15 04:24:01;;;;;;;1068.30;957.95;;;15.60;65.50;;;;;;5077546;28;20130;-89
2022/07/15 04:26:28;;;;;;;1076.40;963.38;;;15.60;63.70;;;;;;5093223;28;20100;-89
2022/07/15 04:28:54;;;;;;;1077.30;966.20;;;15.60;64.00;;;;;;5079534;28;20028;-90
2022/07/15 04:31:20;;;;;;;1066.00;953.05;;;15.70;64.10;;;;;;5087477;28;20093;-90
2022/07/15 04:33:46;;;;;;;1070.90;963.05;;;15.70;63.30;;;;;;5088312;28;20031;-90
2022/07/15 04:36:11;;;;;;;1036.63;934.78;;;15.70;63.70;;;;;;5085240;28;20055;-87
2022/07/15 04:38:37;;;;;;;1029.32;932.17;;;15.50;65.10;;;;;;5088834;28;20742;-88
2022/07/15 04:41:03;;;;;;;1062.50;957.05;;;15.50;64.00;;;;;;5076703;28;20494;-92
2022/07/15 04:43:28;;;;;;;1027.65;927.20;;;15.60;65.10;;;;;;5094420;28;20081;-91
2022/07/15 04:45:54;;;;;;;1067.78;944.63;;;15.70;63.90;;;;;;5073877;28;20031;-90
2022/07/15 04:51:04;;;;;;;1082.90;969.03;;;16.00;63.40;;;;;;5076754;28;20470;-92
2022/07/15 04:53:29;;;;;;;1026.60;910.53;;;16.10;62.00;;;;;;5061713;28;20086;-91
2022/07/15 04:55:55;;;;;;;1029.28;926.30;;;16.10;61.30;;;;;;5095433;28;20047;-91
2022/07/15 04:58:21;;;;;;;1104.15;985.95;;;16.10;61.10;;;;;;5072869;28;20032;-92
2022/07/15 05:00:47;;;;;;;1051.75;943.38;;;16.10;61.50;;;;;;5076735;28;20067;-91
2022/07/15 05:03:13;;;;;;;1042.65;940.13;;;16.30;61.70;;;;;;5073312;28;20031;-86
2022/07/15 05:05:39;;;;;;;1059.93;953.60;;;16.30;61.10;;;;;;5105298;28;20032;-85
2022/07/15 05:08:06;;;;;;;1088.05;966.78;;;16.40;60.10;;;;;;5083220;28;20042;-85
2022/07/15 05:10:32;;;;;;;1003.85;903.25;;;16.30;61.00;;;;;;5103758;28;20015;-84
2022/07/15 05:12:57;;;;;;;1070.20;957.05;;;16.40;58.70;;;;;;5097129;28;20036;-83
2022/07/15 05:15:23;;;;;;;1059.18;946.60;;;16.60;59.60;;;;;;5085314;28;20054;-84
2022/07/15 05:17:49;;;;;;;1635.90;999.17;;;16.60;58.10;;;;;;5079715;28;20032;-84
2022/07/15 05:20:15;;;;;;;1186.95;986.22;;;16.70;55.80;;;;;;5092969;28;20076;-83
2022/07/15 05:22:40;;;;;;;1111.75;995.95;;;16.80;55.80;;;;;;5095137;28;20037;-81
2022/07/15 05:25:06;;;;;;;1368.18;999.90;;;16.80;56.10;;;;;;5073891;28;20105;-82
2022/07/15 05:27:32;;;;;;;1097.00;980.53;;;16.80;54.60;;;;;;5093106;28;20475;-81
2022/07/15 05:29:57;;;;;;;1045.65;923.63;;;17.00;56.00;;;;;;5072237;28;20046;-84
2022/07/15 05:32:23;;;;;;;1026.07;918.50;;;16.90;55.10;;;;;;5087396;28;20036;-85
2022/07/15 05:34:49;;;;;;;925.88;849.17;;;17.10;57.40;;;;;;5076771;28;20034;-84
2022/07/15 05:37:14;;;;;;;1100.25;989.47;;;17.20;56.20;;;;;;5101370;28;20031;-85
2022/07/15 05:39:53;;;;;;;1056.43;946.67;;;17.10;57.00;;;;;;5066041;28;20093;-84
2022/07/15 05:42:22;;;;;;;1106.22;991.40;;;17.00;57.10;;;;;;5062076;28;20111;-83
2022/07/15 05:44:48;;;;;;;1037.78;933.25;;;17.10;56.80;;;;;;5076162;28;20077;-83
2022/07/15 05:47:15;;;;;;;1033.60;933.67;;;17.30;57.60;;;;;;5088862;28;20120;-83
2022/07/15 05:49:43;;;;;;;982.53;896.58;;;17.30;58.10;;;;;;5084303;28;20029;-83
2022/07/15 05:52:09;;;;;;;1066.20;953.30;;;17.20;54.90;;;;;;5073486;28;20038;-84
2022/07/15 05:54:37;;;;;;;982.22;892.65;;;17.10;56.00;;;;;;5071390;28;20048;-83
2022/07/15 05:57:03;;;;;;;1034.32;872.53;;;17.00;58.30;;;;;;5073039;28;20075;-83
2022/07/15 05:59:29;;;;;;;1089.25;974.88;;;17.20;56.30;;;;;;5066396;28;20028;-83
2022/07/15 06:01:55;;;;;;;949.67;861.78;;;17.30;55.60;;;;;;5065783;28;20105;-83
2022/07/15 06:04:21;;;;;;;1055.10;949.45;;;17.30;58.70;;;;;;5098967;28;20099;-83
2022/07/15 06:06:47;;;;;;;950.97;859.92;;;17.20;56.40;;;;;;5100406;28;20108;-82
2022/07/15 06:09:12;;;;;;;986.85;901.50;;;17.10;55.70;;;;;;5078656;28;20491;-83
2022/07/15 06:11:38;;;;;;;1015.55;922.58;;;17.20;56.00;;;;;;5081968;28;20603;-82
2022/07/15 06:14:05;;;;;;;1238.72;983.58;;;17.30;56.20;;;;;;5073613;28;20060;-82
2022/07/15 06:16:30;;;;;;;1419.68;999.90;;;17.50;54.20;;;;;;5098025;28;20497;-83
2022/07/15 06:18:56;;;;;;;1035.40;936.97;;;17.50;54.20;;;;;;5077079;28;20224;-83
2022/07/15 06:21:22;;;;;;;1010.45;914.33;;;17.60;55.90;;;;;;5092783;28;20066;-83
2022/07/15 06:23:47;;;;;;;940.05;860.55;;;17.70;55.00;;;;;;5088886;28;20028;-83
2022/07/15 06:26:13;;;;;;;897.70;825.47;;;17.70;56.60;;;;;;5090819;28;20411;-83
2022/07/15 06:28:39;;;;;;;1179.88;978.30;;;17.70;59.00;;;;;;5068756;28;20115;-83
2022/07/15 06:31:04;;;;;;;993.70;898.42;;;17.80;55.10;;;;;;5065294;28;20116;-83
2022/07/15 06:33:30;;;;;;;955.63;871.63;;;17.90;57.10;;;;;;5053472;28;20036;-83
2022/07/15 06:35:55;;;;;;;925.65;837.95;;;18.00;57.10;;;;;;5102862;28;20482;-83
2022/07/15 06:38:21;;;;;;;1083.70;968.55;;;17.90;55.40;;;;;;5098649;28;20028;-83
2022/07/15 06:40:47;;;;;;;1016.13;916.47;;;18.10;54.50;;;;;;5101022;28;20035;-83
2022/07/15 06:43:13;;;;;;;789.97;624.78;;;18.20;54.10;;;;;;5095311;28;20034;-83
2022/07/15 06:45:39;;;;;;;990.45;900.72;;;18.10;54.80;;;;;;5080261;28;20100;-83
2022/07/15 06:48:05;;;;;;;878.00;812.40;;;18.20;55.90;;;;;;5079836;28;20541;-84
2022/07/15 06:50:30;;;;;;;957.95;877.92;;;18.30;55.40;;;;;;5076785;28;20040;-83
2022/07/15 06:52:56;;;;;;;1000.90;907.03;;;18.50;53.80;;;;;;5089889;28;20128;-84
2022/07/15 06:55:22;;;;;;;992.83;892.45;;;18.60;54.50;;;;;;5077390;28;20040;-83
2022/07/15 06:57:47;;;;;;;971.78;884.90;;;18.60;54.60;;;;;;5032035;28;20023;-83
2022/07/15 07:00:14;;;;;;;921.97;843.42;;;18.80;51.60;;;;;;5070125;28;20028;-82
2022/07/15 07:02:41;;;;;;;948.55;863.45;;;18.80;52.20;;;;;;5085052;28;20028;-83
2022/07/15 07:05:08;;;;;;;909.92;836.83;;;18.80;55.80;;;;;;5077691;28;20053;-84
2022/07/15 07:07:34;;;;;;;900.60;827.58;;;19.00;53.00;;;;;;5070615;28;20483;-83
2022/07/15 07:09:59;;;;;;;807.53;746.30;;;19.00;52.90;;;;;;5093937;28;20240;-84
2022/07/15 07:12:25;;;;;;;684.35;609.90;;;19.20;56.20;;;;;;5092459;28;20502;-83
2022/07/15 07:14:51;;;;;;;855.08;788.05;;;19.10;49.80;;;;;;5073106;28;20090;-83
2022/07/15 07:17:17;;;;;;;1016.53;775.65;;;19.10;50.40;;;;;;5056051;28;20060;-84
2022/07/15 07:19:42;;;;;;;810.53;747.20;;;19.20;50.50;;;;;;5082638;28;20526;-84
2022/07/15 07:22:08;;;;;;;836.30;769.92;;;19.20;52.90;;;;;;5049872;28;20463;-83
2022/07/15 07:24:33;;;;;;;848.08;780.03;;;19.50;54.10;;;;;;5060602;28;20484;-84
2022/07/15 07:26:59;;;;;;;836.50;769.53;;;19.70;52.00;;;;;;5070314;28;20107;-83
2022/07/15 07:29:25;;;;;;;843.95;774.10;;;19.80;51.90;;;;;;5078115;28;20090;-84
2022/07/15 07:31:52;;;;;;;837.15;771.90;;;20.00;52.10;;;;;;5058622;28;20135;-83
2022/07/15 07:34:18;;;;;;;793.45;733.45;;;20.10;50.30;;;;;;5082309;28;20043;-84
2022/07/15 07:36:45;;;;;;;835.95;771.33;;;20.20;50.40;;;;;;5083352;28;20128;-83
2022/07/15 07:39:12;;;;;;;734.05;681.47;;;20.00;50.20;;;;;;5068511;28;20791;-83
2022/07/15 07:41:38;;;;;;;1224.95;899.55;;;20.20;52.40;;;;;;5073603;28;20033;-84
2022/07/15 07:44:04;;;;;;;787.92;727.42;;;20.10;46.90;;;;;;5079946;28;20242;-85
2022/07/15 07:46:30;;;;;;;798.13;733.50;;;20.20;49.10;;;;;;5088728;28;20553;-84
2022/07/15 07:48:56;;;;;;;853.85;784.17;;;20.10;47.10;;;;;;5070820;28;20036;-83
2022/07/15 07:51:21;;;;;;;689.45;639.50;;;20.10;47.80;;;;;;5041801;28;20538;-83
2022/07/15 07:53:47;;;;;;;852.88;774.30;;;20.20;51.70;;;;;;5088263;28;20468;-84
2022/07/15 07:56:13;;;;;;;1186.88;841.22;;;20.20;49.20;;;;;;5065484;28;20636;-84
2022/07/15 07:58:39;;;;;;;779.55;721.78;;;20.20;47.30;;;;;;5043639;28;20085;-83
2022/07/15 08:01:05;;;;;;;608.63;567.15;;;20.30;48.70;;;;;;5077138;28;20380;-84
2022/07/15 08:03:31;;;;;;;762.92;705.20;;;20.40;55.80;;;;;;5068546;28;20036;-84
2022/07/15 08:05:56;;;;;;;782.55;720.35;;;20.40;47.30;;;;;;5064979;28;20050;-83
2022/07/15 08:08:23;;;;;;;847.25;779.17;;;20.60;48.40;;;;;;5082509;28;20039;-83
2022/07/15 08:10:53;;;;;;;693.20;639.47;;;20.70;44.30;;;;;;5106495;28;20032;-83
2022/07/15 08:13:21;;;;;;;708.53;656.80;;;20.90;47.00;;;;;;5061631;28;20044;-83
2022/07/15 08:15:47;;;;;;;979.03;887.50;;;20.90;50.60;;;;;;5095817;28;20086;-83
2022/07/15 08:18:13;;;;;;;883.53;806.72;;;21.10;44.70;;;;;;5092053;28;20043;-83
2022/07/15 08:20:40;;;;;;;878.45;803.80;;;21.10;46.50;;;;;;5095829;28;20028;-83
2022/07/15 08:23:06;;;;;;;1470.50;952.58;;;21.20;45.20;;;;;;5094347;28;20027;-82
2022/07/15 08:25:34;;;;;;;1277.15;934.42;;;21.00;42.20;;;;;;5057125;28;20024;-83
2022/07/15 08:28:00;;;;;;;1038.70;939.78;;;21.20;42.10;;;;;;5089057;28;20309;-83
2022/07/15 08:30:30;;;;;;;864.30;793.78;;;21.30;41.80;;;;;;5086729;28;20605;-83
2022/07/15 08:32:57;;;;;;;882.10;806.45;;;21.40;45.90;;;;;;5086556;28;20023;-83
2022/07/15 08:35:24;;;;;;;937.97;853.03;;;21.80;46.80;;;;;;5097627;28;20039;-82
2022/07/15 08:37:49;;;;;;;687.22;639.92;;;22.10;41.90;;;;;;5104168;28;20069;-83
2022/07/15 08:40:16;;;;;;;710.92;658.72;;;22.50;44.00;;;;;;5103955;28;20485;-83
2022/07/15 08:42:45;;;;;;;669.03;622.72;;;22.20;40.50;;;;;;5085102;28;20416;-83
2022/07/15 08:45:12;;;;;;;696.42;646.33;;;22.20;40.70;;;;;;5081992;28;20035;-83
2022/07/15 08:47:39;;;;;;;600.05;560.63;;;22.20;40.00;;;;;;5074593;28;20031;-83
2022/07/15 08:50:05;;;;;;;603.35;562.90;;;22.60;38.70;;;;;;5077295;28;20501;-84
2022/07/15 08:52:34;;;;;;;625.08;229.43;;;22.80;42.80;;;;;;5073940;28;20048;-83
2022/07/15 08:55:00;;;;;;;1583.07;775.63;;;22.90;38.40;;;;;;5070534;28;20040;-83
2022/07/15 08:57:26;;;;;;;976.10;893.20;;;23.00;40.50;;;;;;5056707;28;20107;-83
2022/07/15 08:59:52;;;;;;;977.85;895.92;;;22.90;39.50;;;;;;5065078;28;20177;-83
2022/07/15 09:02:22;;;;;;;956.80;875.85;;;23.00;38.60;;;;;;5073512;28;20036;-83
2022/07/15 09:05:16;;;;;;;987.08;903.15;;;23.00;39.90;;;;;;5078089;28;20050;-83
2022/07/15 09:08:03;;;;;;;1078.63;967.38;;;23.20;38.40;;;;;;5097140;28;20115;-82
2022/07/15 09:10:59;;;;;;;1026.90;931.67;;;22.80;35.10;;;;;;5093990;28;20027;-83
2022/07/15 09:13:34;;;;;;;997.78;908.08;;;23.20;35.10;;;;;;5077652;28;20036;-83
2022/07/15 09:16:08;;;;;;;945.20;866.67;;;23.50;35.90;;;;;;5099195;28;20134;-83
2022/07/15 09:18:36;;;;;;;968.78;887.85;;;23.40;43.50;;;;;;5075532;28;20117;-83
2022/07/15 09:21:13;;;;;;;989.40;903.13;;;23.60;38.00;;;;;;5074495;28;20483;-83
2022/07/15 09:23:39;;;;;;;926.97;849.10;;;23.90;34.80;;;;;;5087363;28;20054;-82
2022/07/15 09:26:22;;;;;;;942.30;866.55;;;24.00;35.90;;;;;;5054497;28;20032;-86
2022/07/15 09:28:50;;;;;;;944.63;863.78;;;24.10;37.90;;;;;;5087960;28;20070;-84
2022/07/15 09:34:15;;;;;;;997.22;911.70;;;24.40;34.40;;;;;;5100176;28;20406;-83
2022/07/15 09:36:45;;;;;;;951.45;863.78;;;24.60;31.60;;;;;;5100486;28;20032;-83
2022/07/15 09:39:11;;;;;;;1999.90;999.90;;;24.60;35.10;;;;;;5103416;28;20121;-83
2022/07/15 09:41:41;;;;;;;1259.03;396.17;;;24.40;34.80;;;;;;5098579;28;20047;-83
2022/07/15 09:44:16;;;;;;;1999.90;961.35;;;24.40;34.80;;;;;;5100137;28;20031;-83
2022/07/15 09:46:57;;;;;;;1999.90;919.88;;;24.60;33.60;;;;;;5097411;28;20030;-82
2022/07/15 09:49:22;;;;;;;1999.90;761.65;;;25.20;32.20;;;;;;5093019;28;20036;-84
2022/07/15 09:51:55;;;;;;;1999.90;883.10;;;25.30;30.50;;;;;;5074406;28;20125;-83
2022/07/15 09:54:30;;;;;;;1999.90;999.90;;;25.50;33.90;;;;;;5072079;28;20064;-82
2022/07/15 09:57:00;;;;;;;1999.90;999.90;;;25.50;31.90;;;;;;5090229;28;20024;-84
2022/07/15 09:59:29;;;;;;;1999.90;999.90;;;25.20;31.70;;;;;;5070228;28;20530;-84
2022/07/15 10:01:55;;;;;;;1999.90;999.90;;;25.50;33.10;;;;;;5086794;28;20047;-83
2022/07/15 10:04:23;;;;;;;1999.90;999.90;;;25.80;35.70;;;;;;5102477;28;20031;-84
2022/07/15 10:06:52;;;;;;;1999.90;999.90;;;26.10;31.80;;;;;;5066421;28;20056;-83
2022/07/15 10:09:27;;;;;;;1999.90;999.90;;;26.00;30.60;;;;;;5096252;28;20487;-83
2022/07/15 10:11:56;;;;;;;1999.90;999.90;;;25.80;28.80;;;;;;5080799;28;20466;-81
2022/07/15 10:14:34;;;;;;;1999.90;999.90;;;25.80;30.00;;;;;;5077424;28;20563;-83
2022/07/15 10:17:18;;;;;;;1999.90;999.90;;;26.20;31.30;;;;;;5075604;28;20670;-83
2022/07/15 10:20:30;;;;;;;1999.90;999.90;;;25.90;28.70;;;;;;5092346;28;20353;-83
2022/07/15 10:23:01;;;;;;;1999.90;999.90;;;25.40;32.70;;;;;;5089579;28;20016;-83
2022/07/15 10:25:55;;;;;;;1999.90;999.90;;;24.80;31.70;;;;;;5088826;28;20027;-83
2022/07/15 10:28:40;;;;;;;1999.90;999.90;;;24.50;33.20;;;;;;5089857;28;20024;-83
2022/07/15 10:31:16;;;;;;;1999.90;999.90;;;24.20;33.90;;;;;;5083904;28;20081;-83
2022/07/15 10:33:42;;;;;;;1999.90;999.90;;;24.00;35.60;;;;;;5097752;28;20095;-83
2022/07/15 10:36:08;;;;;;;1999.90;999.90;;;24.10;33.00;;;;;;5087228;28;20058;-83
2022/07/15 10:38:38;;;;;;;1999.90;999.90;;;24.40;34.30;;;;;;5097401;28;20490;-83
2022/07/15 10:41:11;;;;;;;1999.90;999.90;;;24.90;37.50;;;;;;5079897;28;20036;-83
2022/07/15 10:43:50;;;;;;;1999.90;999.90;;;24.80;36.40;;;;;;5097396;28;20028;-84
2022/07/15 10:46:15;;;;;;;1999.90;999.90;;;25.90;32.60;;;;;;5097424;28;20016;-83
2022/07/15 10:48:46;;;;;;;1999.90;999.90;;;25.90;32.90;;;;;;5092237;28;20103;-83
2022/07/15 10:51:32;;;;;;;1999.90;999.90;;;26.40;31.00;;;;;;5076494;28;20035;-84
2022/07/15 10:53:59;;;;;;;1999.90;999.90;;;26.60;32.90;;;;;;5088209;28;20110;-83
2022/07/15 10:56:36;;;;;;;1999.90;999.90;;;26.60;31.20;;;;;;5088343;28;20483;-84
2022/07/15 10:59:21;;;;;;;1999.90;999.90;;;26.80;31.00;;;;;;5086364;28;20255;-84
2022/07/15 11:02:06;;;;;;;1999.90;999.90;;;26.90;32.00;;;;;;5086695;28;20053;-84
2022/07/15 11:04:34;;;;;;;1999.90;999.90;;;27.70;27.70;;;;;;5081051;28;20385;-84
2022/07/15 11:07:11;;;;;;;1999.90;999.90;;;27.50;27.90;;;;;;5098208;28;20035;-84
2022/07/15 11:09:57;;;;;;;1676.63;776.50;;;27.40;34.20;;;;;;5092312;28;20028;-83
2022/07/15 11:12:32;;;;;;;1999.90;999.90;;;27.20;28.40;;;;;;5081110;28;20403;-83
2022/07/15 11:15:02;;;;;;;1999.90;999.90;;;28.20;25.60;;;;;;5073964;28;20050;-83
2022/07/15 11:17:34;;;;;;;1999.90;999.90;;;28.60;26.60;;;;;;5092922;28;20513;-83
2022/07/15 11:20:04;;;;;;;1999.90;999.90;;;28.00;30.00;;;;;;5072231;28;20030;-82
2022/07/15 11:22:30;;;;;;;1999.90;999.90;;;29.80;24.70;;;;;;5089925;28;20032;-83
2022/07/15 11:24:56;;;;;;;1999.90;999.90;;;29.60;23.80;;;;;;5085578;28;20080;-82
2022/07/15 11:27:24;;;;;;;1999.90;999.90;;;30.20;23.30;;;;;;5067849;28;20016;-83
2022/07/15 11:29:51;;;;;;;1999.90;999.90;;;31.80;22.20;;;;;;5087470;28;20466;-83
2022/07/15 11:32:20;;;;;;;1999.90;999.90;;;30.90;21.80;;;;;;5071809;28;20030;-81
2022/07/15 11:34:50;;;;;;;1999.90;999.90;;;29.80;23.20;;;;;;5075829;28;20040;-82
2022/07/15 11:37:19;;;;;;;1999.90;999.90;;;29.80;25.60;;;;;;5079437;28;20028;-83
2022/07/15 11:39:50;;;;;;;1999.90;999.90;;;30.70;21.30;;;;;;5079008;28;20570;-83
2022/07/15 11:45:09;;;;;;;1999.90;999.90;;;30.20;21.70;;;;;;5093072;28;20027;-82
2022/07/15 11:47:35;;;;;;;1999.90;999.90;;;30.20;23.10;;;;;;5095462;28;20036;-83
2022/07/15 11:50:04;;;;;;;1999.90;861.83;;;29.50;22.80;;;;;;5070935;28;20682;-82
2022/07/15 11:52:30;;;;;;;1878.13;289.60;;;28.90;22.60;;;;;;5089386;28;20072;-82
2022/07/15 11:54:56;;;;;;;1999.90;360.00;;;27.10;25.70;;;;;;5084401;28;20039;-83
2022/07/15 11:57:22;;;;;;;1999.90;999.90;;;27.30;26.80;;;;;;5068806;28;20035;-83
2022/07/15 11:59:57;;;;;;;1802.95;781.60;;;27.40;24.60;;;;;;5065917;28;20069;-83
2022/07/15 12:02:25;;;;;;;1999.90;999.90;;;28.50;25.70;;;;;;5067468;28;20029;-82
2022/07/15 12:05:00;;;;;;;1658.68;571.95;;;29.70;21.80;;;;;;5079988;28;20035;-82
2022/07/15 12:07:47;;;;;;;1852.55;615.80;;;30.80;23.90;;;;;;5072441;28;20067;-83
2022/07/15 12:10:14;;;;;;;1999.90;359.27;;;31.20;24.00;;;;;;5095322;28;20028;-83
2022/07/15 12:12:54;;;;;;;1999.90;570.22;;;31.80;23.80;;;;;;5078852;28;20118;-83
2022/07/15 12:15:20;;;;;;;1999.90;713.22;;;32.80;23.00;;;;;;5078083;28;20096;-83